createdAt,value
2022-10-13T00:01:14.746Z,12.35
2022-10-13T00:03:43.435Z,15.10
2022-10-13T00:06:12.042Z,16.95
2022-10-13T00:08:40.329Z,14.80
2022-10-13T00:11:18.181Z,12.07
2022-10-13T00:13:47.267Z,16.55
2022-10-13T00:16:17.290Z,13.07
2022-10-13T00:18:46.051Z,15.20
2022-10-13T00:21:17.055Z,14.48
2022-10-13T00:23:45.008Z,11.65
2022-10-13T00:26:15.344Z,10.75
2022-10-13T00:28:44.751Z,15.20
2022-10-13T00:31:26.252Z,10.70
2022-10-13T00:33:54.290Z,15.00
2022-10-13T00:36:24.102Z,11.95
2022-10-13T00:38:53.316Z,10.88
2022-10-13T00:41:21.920Z,13.07
2022-10-13T00:44:01.031Z,11.48
2022-10-13T00:46:32.496Z,11.90
2022-10-13T00:49:03.228Z,13.88
2022-10-13T00:51:34.802Z,15.20
2022-10-13T00:54:04.635Z,14.93
2022-10-13T00:56:33.014Z,15.57
2022-10-13T00:59:01.874Z,11.98
2022-10-13T01:01:29.918Z,12.70
2022-10-13T01:03:57.607Z,15.55
2022-10-13T01:06:25.715Z,14.57
2022-10-13T01:08:53.383Z,13.20
2022-10-13T01:11:23.955Z,11.45
2022-10-13T01:14:01.086Z,13.05
2022-10-13T01:17:15.211Z,16.12
2022-10-13T01:20:04.644Z,13.00
2022-10-13T01:22:54.164Z,12.37
2022-10-13T01:25:43.653Z,10.90
2022-10-13T01:28:33.073Z,13.45
2022-10-13T01:31:12.124Z,16.87
2022-10-13T01:34:09.018Z,14.77
2022-10-13T01:37:08.483Z,12.90
2022-10-13T01:39:46.347Z,13.62
2022-10-13T01:42:25.797Z,11.93
2022-10-13T01:45:00.025Z,13.80
2022-10-13T01:47:28.599Z,14.90
2022-10-13T01:49:58.048Z,14.77
2022-10-13T01:52:29.162Z,13.25
2022-10-13T01:54:59.583Z,15.90
2022-10-13T01:57:36.117Z,14.30
2022-10-13T02:00:09.957Z,12.65
2022-10-13T02:03:02.446Z,12.70
2022-10-13T02:05:39.082Z,14.60
2022-10-13T02:08:18.340Z,14.87
2022-10-13T02:10:59.822Z,13.35
2022-10-13T02:13:30.560Z,13.70
2022-10-13T02:16:01.709Z,10.98
2022-10-13T02:18:35.797Z,18.10
2022-10-13T02:21:04.645Z,14.20
2022-10-13T02:23:32.812Z,13.90
2022-10-13T02:26:00.936Z,12.20
2022-10-13T02:28:29.266Z,16.65
2022-10-13T02:30:57.125Z,17.70
2022-10-13T02:33:24.774Z,13.50
2022-10-13T02:35:52.349Z,14.25
2022-10-13T02:38:20.016Z,12.95
2022-10-13T02:40:47.641Z,12.70
2022-10-13T02:43:15.260Z,18.02
2022-10-13T02:45:42.857Z,14.23
2022-10-13T02:48:10.601Z,14.50
2022-10-13T02:50:38.508Z,14.65
2022-10-13T02:53:06.103Z,14.52
2022-10-13T02:55:33.774Z,17.12
2022-10-13T02:58:01.425Z,13.05
2022-10-13T03:00:29.253Z,13.02
2022-10-13T03:02:57.336Z,11.93
2022-10-13T03:05:25.017Z,14.13
2022-10-13T03:07:52.673Z,19.75
2022-10-13T03:10:20.478Z,16.80
2022-10-13T03:12:48.280Z,15.30
2022-10-13T03:15:16.046Z,16.15
2022-10-13T03:17:44.161Z,17.50
2022-10-13T03:20:11.870Z,12.73
2022-10-13T03:22:39.553Z,12.10
2022-10-13T03:25:07.529Z,15.88
2022-10-13T03:27:35.210Z,15.85
2022-10-13T03:30:03.209Z,15.60
2022-10-13T03:32:33.637Z,13.60
2022-10-13T03:35:01.619Z,15.80
2022-10-13T03:37:31.762Z,17.23
2022-10-13T03:39:59.419Z,12.20
2022-10-13T03:42:27.080Z,16.25
2022-10-13T03:44:56.568Z,19.23
2022-10-13T03:47:25.039Z,13.82
2022-10-13T03:49:55.295Z,12.85
2022-10-13T03:52:23.974Z,12.65
2022-10-13T03:54:51.594Z,17.67
2022-10-13T03:57:19.229Z,15.82
2022-10-13T03:59:46.838Z,13.98
2022-10-13T04:02:14.657Z,16.62
2022-10-13T04:04:42.317Z,15.55
2022-10-13T04:07:09.983Z,18.55
2022-10-13T04:09:37.643Z,16.37
2022-10-13T04:12:05.657Z,13.15
2022-10-13T04:14:33.342Z,13.07
2022-10-13T04:17:00.971Z,11.95
2022-10-13T04:19:28.630Z,12.77
2022-10-13T04:21:56.218Z,13.77
2022-10-13T04:24:23.855Z,14.02
2022-10-13T04:26:51.529Z,16.25
2022-10-13T04:29:19.160Z,12.52
2022-10-13T04:31:46.830Z,14.00
2022-10-13T04:34:14.478Z,15.48
2022-10-13T04:36:42.127Z,11.25
2022-10-13T04:39:09.725Z,12.88
2022-10-13T04:41:37.367Z,12.75
2022-10-13T04:44:05.012Z,14.43
2022-10-13T04:46:32.599Z,14.20
2022-10-13T04:49:00.202Z,13.90
2022-10-13T04:51:28.048Z,12.27
2022-10-13T04:53:58.350Z,13.38
2022-10-13T04:56:26.971Z,14.48
2022-10-13T04:58:54.767Z,14.70
2022-10-13T05:01:24.760Z,13.52
2022-10-13T05:03:57.273Z,14.87
2022-10-13T05:06:27.802Z,14.38
2022-10-13T05:08:55.887Z,16.62
2022-10-13T05:11:25.349Z,13.68
2022-10-13T05:13:53.190Z,17.65
2022-10-13T05:16:22.319Z,17.33
2022-10-13T05:18:51.692Z,14.07
2022-10-13T05:21:25.278Z,16.67
2022-10-13T05:23:56.468Z,15.82
2022-10-13T05:26:30.068Z,16.65
2022-10-13T05:28:59.247Z,14.80
2022-10-13T05:31:29.549Z,16.33
2022-10-13T05:33:57.857Z,14.68
2022-10-13T05:36:32.331Z,15.65
2022-10-13T05:39:02.800Z,18.08
2022-10-13T05:41:31.830Z,18.48
2022-10-13T05:44:02.665Z,15.15
2022-10-13T05:46:30.495Z,16.77
2022-10-13T05:48:58.230Z,21.05
2022-10-13T05:51:29.433Z,17.60
2022-10-13T05:54:10.116Z,22.55
2022-10-13T05:56:42.414Z,16.30
2022-10-13T05:59:15.025Z,17.52
2022-10-13T06:01:44.392Z,19.08
2022-10-13T06:04:18.295Z,16.52
2022-10-13T06:06:46.691Z,15.80
2022-10-13T06:09:14.531Z,17.90
2022-10-13T06:11:42.321Z,17.73
2022-10-13T06:14:10.082Z,16.10
2022-10-13T06:16:38.126Z,17.50
2022-10-13T06:19:07.143Z,17.20
2022-10-13T06:21:37.926Z,18.60
2022-10-13T06:24:05.804Z,18.27
2022-10-13T06:26:33.505Z,16.17
2022-10-13T06:29:01.413Z,18.20
2022-10-13T06:31:29.579Z,14.35
2022-10-13T06:33:57.225Z,22.00
2022-10-13T06:36:24.906Z,17.85
2022-10-13T06:38:52.797Z,17.52
2022-10-13T06:41:20.448Z,17.95
2022-10-13T06:43:48.110Z,19.17
2022-10-13T06:46:15.878Z,18.02
2022-10-13T06:48:43.574Z,18.20
2022-10-13T06:51:12.950Z,15.75
2022-10-13T06:53:40.612Z,19.87
2022-10-13T06:56:09.788Z,18.15
2022-10-13T06:58:38.585Z,17.85
2022-10-13T07:01:07.043Z,17.83
2022-10-13T07:03:34.958Z,16.73
2022-10-13T07:06:06.956Z,16.45
2022-10-13T07:08:35.709Z,15.27
2022-10-13T07:11:16.362Z,18.60
2022-10-13T07:13:46.674Z,19.12
2022-10-13T07:16:15.180Z,17.12
2022-10-13T07:18:43.174Z,14.73
2022-10-13T07:21:10.809Z,17.42
2022-10-13T07:23:38.441Z,15.45
2022-10-13T07:26:17.512Z,16.48
2022-10-13T07:28:46.247Z,20.98
2022-10-13T07:31:17.536Z,22.70
2022-10-13T07:33:48.469Z,13.90
2022-10-13T07:36:16.487Z,18.40
2022-10-13T07:38:44.151Z,15.18
2022-10-13T07:41:13.170Z,13.02
2022-10-13T07:43:41.508Z,13.62
2022-10-13T07:46:10.137Z,16.87
2022-10-13T07:48:37.905Z,17.58
2022-10-13T07:51:13.840Z,16.58
2022-10-13T07:53:43.900Z,15.77
2022-10-13T07:56:13.471Z,13.98
2022-10-13T07:58:46.656Z,15.45
2022-10-13T08:01:15.521Z,14.73
2022-10-13T08:03:47.184Z,15.43
2022-10-13T08:06:18.693Z,15.68
2022-10-13T08:08:46.879Z,18.58
2022-10-13T08:11:17.125Z,17.65
2022-10-13T08:13:52.241Z,14.85
2022-10-13T08:16:20.723Z,16.45
2022-10-13T08:18:49.327Z,15.65
2022-10-13T08:24:12.327Z,15.40
2022-10-13T08:26:40.702Z,13.10
2022-10-13T08:29:24.373Z,13.45
2022-10-13T08:31:54.364Z,14.55
2022-10-13T08:34:24.060Z,12.45
2022-10-13T08:36:54.499Z,14.73
2022-10-13T08:39:23.917Z,14.90
2022-10-13T08:41:51.667Z,17.42
2022-10-13T08:47:39.109Z,15.23
2022-10-13T08:50:16.212Z,13.45
2022-10-13T08:52:49.443Z,14.73
2022-10-13T08:55:53.136Z,13.68
2022-10-13T08:58:26.989Z,12.10
2022-10-13T09:01:19.816Z,15.80
2022-10-13T09:03:54.602Z,19.12
2022-10-13T09:06:33.258Z,13.88
2022-10-13T09:09:07.433Z,12.48
2022-10-13T09:11:44.010Z,10.73
2022-10-13T09:14:20.125Z,14.77
2022-10-13T09:16:47.993Z,11.05
2022-10-13T09:19:37.498Z,11.30
2022-10-13T09:22:29.411Z,11.70
2022-10-13T09:25:11.287Z,14.32
2022-10-13T09:27:59.157Z,11.20
2022-10-13T09:30:37.758Z,12.93
2022-10-13T09:33:14.152Z,13.02
2022-10-13T09:35:45.489Z,14.55
2022-10-13T09:38:22.156Z,12.45
2022-10-13T09:41:11.664Z,14.73
2022-10-13T09:43:48.778Z,15.73
2022-10-13T09:46:27.033Z,15.23
2022-10-13T09:49:07.921Z,16.58
2022-10-13T09:51:46.119Z,14.02
2022-10-13T09:54:48.063Z,15.98
2022-10-13T09:57:18.804Z,16.35
2022-10-13T10:00:13.781Z,16.65
2022-10-13T10:02:56.672Z,13.75
2022-10-13T10:05:45.808Z,14.23
2022-10-13T10:08:28.959Z,18.40
2022-10-13T10:11:04.396Z,16.25
2022-10-13T10:13:32.287Z,14.73
2022-10-13T10:16:31.022Z,14.45
2022-10-13T10:19:07.191Z,16.45
2022-10-13T10:21:37.933Z,19.20
2022-10-13T10:24:17.854Z,17.10
2022-10-13T10:27:08.528Z,16.52
2022-10-13T10:29:58.747Z,13.85
2022-10-13T10:32:31.968Z,16.55
2022-10-13T10:35:05.798Z,13.57
2022-10-13T10:38:04.565Z,13.27
2022-10-13T10:40:57.440Z,13.40
2022-10-13T10:44:03.622Z,14.80
2022-10-13T10:46:37.064Z,20.60
2022-10-13T10:49:24.117Z,19.77
2022-10-13T10:51:51.994Z,16.23
2022-10-13T10:54:19.561Z,15.07
2022-10-13T10:56:56.134Z,15.70
2022-10-13T10:59:32.872Z,13.45
2022-10-13T11:02:09.416Z,14.75
2022-10-13T11:04:45.869Z,13.77
2022-10-13T11:07:15.357Z,14.18
2022-10-13T11:09:42.888Z,15.73
2022-10-13T11:12:22.778Z,14.05
2022-10-13T11:15:13.989Z,14.57
2022-10-13T11:17:42.507Z,15.60
2022-10-13T11:20:36.155Z,15.50
2022-10-13T11:23:03.777Z,12.88
2022-10-13T11:25:42.347Z,16.25
2022-10-13T11:28:22.450Z,16.00
2022-10-13T11:30:56.249Z,15.73
2022-10-13T11:33:52.474Z,14.93
2022-10-13T11:36:40.598Z,13.95
2022-10-13T11:42:26.425Z,15.07
2022-10-13T11:45:22.644Z,15.10
2022-10-13T11:47:59.368Z,12.88
2022-10-13T11:51:16.242Z,12.23
2022-10-13T11:53:56.151Z,12.07
2022-10-13T11:56:39.689Z,15.80
2022-10-13T11:59:24.560Z,13.20
2022-10-13T12:02:00.148Z,13.93
2022-10-13T12:04:29.757Z,14.27
2022-10-13T12:07:09.838Z,15.88
2022-10-13T12:09:48.471Z,12.95
2022-10-13T12:12:18.818Z,13.00
2022-10-13T12:14:51.670Z,15.27
2022-10-13T12:17:28.702Z,13.43
2022-10-13T12:19:58.907Z,18.05
2022-10-13T12:22:26.879Z,16.50
2022-10-13T12:25:19.592Z,15.70
2022-10-13T12:27:52.583Z,13.60
2022-10-13T12:30:30.752Z,17.27
2022-10-13T12:33:01.434Z,12.95
2022-10-13T12:35:38.054Z,18.67
2022-10-13T12:38:14.616Z,15.68
2022-10-13T12:40:42.376Z,12.95
2022-10-13T12:43:17.286Z,14.45
2022-10-13T12:45:45.487Z,12.75
2022-10-13T12:48:33.733Z,13.27
2022-10-13T12:51:21.748Z,16.25
2022-10-13T12:53:49.792Z,12.18
2022-10-13T12:56:29.439Z,11.02
2022-10-13T12:58:57.837Z,14.55
2022-10-13T13:01:31.969Z,13.90
2022-10-13T13:04:24.250Z,15.68
2022-10-13T13:06:56.429Z,14.48
2022-10-13T13:09:26.790Z,13.40
2022-10-13T13:12:09.808Z,12.25
2022-10-13T13:14:45.900Z,16.45
2022-10-13T13:17:15.459Z,14.07
2022-10-13T13:19:50.399Z,12.52
2022-10-13T13:22:18.444Z,14.15
2022-10-13T13:24:47.236Z,15.07
2022-10-13T13:27:42.066Z,13.00
2022-10-13T13:30:14.676Z,13.57
2022-10-13T13:32:42.370Z,13.32
2022-10-13T13:35:10.868Z,15.32
2022-10-13T13:37:41.245Z,13.95
2022-10-13T13:40:16.283Z,15.18
2022-10-13T13:42:43.918Z,13.05
2022-10-13T13:45:19.293Z,13.98
2022-10-13T13:47:48.565Z,14.38
2022-10-13T13:50:23.401Z,14.32
2022-10-13T13:52:51.064Z,16.60
2022-10-13T13:55:19.511Z,12.75
2022-10-13T13:57:47.641Z,15.13
2022-10-13T14:00:16.990Z,15.00
2022-10-13T14:02:45.490Z,14.50
2022-10-13T14:05:13.635Z,13.82
2022-10-13T14:07:41.716Z,15.05
2022-10-13T14:10:11.390Z,15.82
2022-10-13T14:12:39.620Z,17.50
2022-10-13T14:15:08.139Z,15.15
2022-10-13T14:17:38.340Z,13.98
2022-10-13T14:20:06.713Z,16.37
2022-10-13T14:22:34.355Z,15.38
2022-10-13T14:25:02.153Z,15.45
2022-10-13T14:27:30.035Z,13.90
2022-10-13T14:29:57.979Z,15.20
2022-10-13T14:32:25.646Z,14.35
2022-10-13T14:34:53.329Z,14.57
2022-10-13T14:37:23.173Z,14.68
2022-10-13T14:39:51.865Z,17.67
2022-10-13T14:42:19.554Z,14.95
2022-10-13T14:44:47.213Z,14.87
2022-10-13T14:47:14.878Z,15.32
2022-10-13T14:49:44.202Z,14.70
2022-10-13T14:52:11.921Z,16.30
2022-10-13T14:54:43.899Z,13.50
2022-10-13T14:57:16.624Z,15.07
2022-10-13T14:59:44.555Z,13.70
2022-10-13T15:02:12.891Z,13.60
2022-10-13T15:04:40.926Z,14.82
2022-10-13T15:07:08.793Z,15.82
2022-10-13T15:09:52.739Z,17.85
2022-10-13T15:12:24.327Z,15.20
2022-10-13T15:14:51.932Z,13.23
2022-10-13T15:17:19.597Z,11.70
2022-10-13T15:19:47.306Z,16.70
2022-10-13T15:22:15.035Z,15.55
2022-10-13T15:24:43.421Z,10.95
2022-10-13T15:27:11.055Z,13.32
2022-10-13T15:29:38.779Z,13.45
2022-10-13T15:32:12.424Z,13.82
2022-10-13T15:34:43.113Z,13.38
2022-10-13T15:37:10.734Z,14.13
2022-10-13T15:39:38.931Z,14.23
2022-10-13T15:42:06.624Z,13.88
2022-10-13T15:44:57.373Z,16.23
2022-10-13T15:47:22.070Z,15.95
2022-10-13T15:49:49.673Z,13.07
2022-10-13T15:52:17.481Z,12.45
2022-10-13T15:54:45.276Z,14.23
2022-10-13T15:57:12.941Z,12.20
2022-10-13T15:59:40.559Z,13.07
2022-10-13T16:02:08.328Z,19.85
2022-10-13T16:04:37.605Z,13.23
2022-10-13T16:07:06.037Z,13.85
2022-10-13T16:09:33.714Z,11.52
2022-10-13T16:12:01.328Z,13.40
2022-10-13T16:14:28.972Z,13.75
2022-10-13T16:16:58.739Z,11.65
2022-10-13T16:19:26.426Z,14.30
2022-10-13T16:21:54.214Z,15.00
2022-10-13T16:24:21.852Z,16.55
2022-10-13T16:26:49.558Z,12.07
2022-10-13T16:29:17.255Z,12.00
2022-10-13T16:31:46.569Z,14.80
2022-10-13T16:34:14.188Z,12.48
2022-10-13T16:36:41.796Z,12.37
2022-10-13T16:39:09.453Z,13.85
2022-10-13T16:41:37.206Z,15.93
2022-10-13T16:44:04.847Z,15.30
2022-10-13T16:46:34.312Z,15.27
2022-10-13T16:49:02.199Z,13.13
2022-10-13T16:51:30.222Z,13.85
2022-10-13T16:54:03.856Z,14.90
2022-10-13T16:56:32.764Z,12.60
2022-10-13T16:59:02.643Z,16.30
2022-10-13T17:01:31.255Z,13.45
2022-10-13T17:03:59.828Z,12.82
2022-10-13T17:06:29.617Z,13.10
2022-10-13T17:09:03.993Z,14.87
2022-10-13T17:11:33.400Z,12.48
2022-10-13T17:14:02.113Z,18.80
2022-10-13T17:16:30.242Z,13.73
2022-10-13T17:18:57.950Z,12.77
2022-10-13T17:21:25.704Z,14.80
2022-10-13T17:23:55.551Z,16.08
2022-10-13T17:26:23.919Z,16.17
2022-10-13T17:28:51.712Z,17.85
2022-10-13T17:31:22.414Z,20.20
2022-10-13T17:33:51.400Z,16.90
2022-10-13T17:36:28.181Z,15.30
2022-10-13T17:38:57.599Z,14.02
2022-10-13T17:41:25.736Z,16.87
2022-10-13T17:43:53.924Z,15.75
2022-10-13T17:46:36.347Z,13.80
2022-10-13T17:49:06.016Z,15.98
2022-10-13T17:51:33.811Z,14.30
2022-10-13T17:54:01.989Z,17.77
2022-10-13T17:56:30.564Z,16.48
2022-10-13T17:58:58.547Z,14.80
2022-10-13T18:01:35.857Z,17.62
2022-10-13T18:04:09.506Z,15.27
2022-10-13T18:06:42.414Z,16.52
2022-10-13T18:09:15.448Z,16.45
2022-10-13T18:11:49.775Z,17.25
2022-10-13T18:14:19.088Z,16.02
2022-10-13T18:16:47.729Z,17.95
2022-10-13T18:19:15.577Z,17.75
2022-10-13T18:21:43.521Z,15.73
2022-10-13T18:24:12.563Z,15.73
2022-10-13T18:26:40.623Z,16.50
2022-10-13T18:29:10.081Z,17.33
2022-10-13T18:31:39.641Z,15.20
2022-10-13T18:34:11.461Z,15.02
2022-10-13T18:36:42.192Z,11.45
2022-10-13T18:39:09.828Z,11.85
2022-10-13T18:41:38.942Z,15.55
2022-10-13T18:44:07.588Z,11.98
2022-10-13T18:46:37.208Z,9.48
2022-10-13T18:49:12.301Z,13.05
2022-10-13T18:51:40.787Z,8.45
2022-10-13T18:54:09.219Z,8.57
2022-10-13T18:56:37.942Z,7.57
2022-10-13T18:59:08.032Z,8.10
2022-10-13T19:01:37.407Z,8.27
2022-10-13T19:04:06.428Z,6.60
2022-10-13T19:06:34.645Z,9.80
2022-10-13T19:09:05.269Z,8.02
2022-10-13T19:11:34.313Z,6.80
2022-10-13T19:14:02.785Z,6.85
2022-10-13T19:16:32.451Z,8.23
2022-10-13T19:19:00.595Z,9.38
2022-10-13T19:21:28.478Z,7.75
2022-10-13T19:23:59.261Z,6.05
2022-10-13T19:26:30.914Z,4.78
2022-10-13T19:29:02.812Z,6.70
2022-10-13T19:31:32.900Z,5.65
2022-10-13T19:34:01.203Z,6.37
2022-10-13T19:36:32.923Z,6.70
2022-10-13T19:39:01.711Z,9.45
2022-10-13T19:41:31.965Z,6.32
2022-10-13T19:44:01.398Z,8.45
2022-10-13T19:46:29.469Z,7.97
2022-10-13T19:48:57.245Z,5.87
2022-10-13T19:51:25.003Z,7.68
2022-10-13T19:53:53.033Z,8.48
2022-10-13T19:56:27.728Z,5.90
2022-10-13T19:58:56.034Z,4.65
2022-10-13T20:01:23.947Z,8.30
2022-10-13T20:03:52.432Z,5.40
2022-10-13T20:06:21.329Z,5.82
2022-10-13T20:08:50.044Z,6.57
2022-10-13T20:11:24.196Z,4.62
2022-10-13T20:13:53.250Z,17.92
2022-10-13T20:16:23.535Z,7.28
2022-10-13T20:18:56.842Z,6.53
2022-10-13T20:21:25.432Z,6.00
2022-10-13T20:23:53.524Z,6.62
2022-10-13T20:26:22.072Z,7.00
2022-10-13T20:28:51.591Z,6.07
2022-10-13T20:31:21.840Z,7.60
2022-10-13T20:33:54.108Z,8.32
2022-10-13T20:36:21.732Z,9.40
2022-10-13T20:38:50.263Z,6.03
2022-10-13T20:41:26.106Z,7.72
2022-10-13T20:43:55.447Z,13.30
2022-10-13T20:46:23.294Z,8.73
2022-10-13T20:49:09.814Z,8.05
2022-10-13T20:51:38.511Z,7.93
2022-10-13T20:54:06.401Z,7.70
2022-10-13T20:56:34.014Z,6.20
2022-10-13T20:59:07.974Z,7.72
2022-10-13T21:01:36.791Z,6.43
2022-10-13T21:04:05.892Z,8.27
2022-10-13T21:06:34.276Z,6.78
2022-10-13T21:09:01.976Z,8.30
2022-10-13T21:11:29.707Z,6.30
2022-10-13T21:13:58.483Z,7.53
2022-10-13T21:16:28.832Z,7.12
2022-10-13T21:18:57.881Z,7.10
2022-10-13T21:21:31.522Z,7.70
2022-10-13T21:24:01.083Z,7.18
2022-10-13T21:26:30.981Z,7.85
2022-10-13T21:28:59.465Z,7.57
2022-10-13T21:31:27.873Z,9.40
2022-10-13T21:33:55.773Z,9.40
2022-10-13T21:36:32.200Z,6.70
2022-10-13T21:39:02.467Z,9.43
2022-10-13T21:41:30.940Z,7.93
2022-10-13T21:43:58.856Z,9.25
2022-10-13T21:46:29.221Z,7.40
2022-10-13T21:48:59.411Z,10.68
2022-10-13T21:51:32.590Z,8.65
2022-10-13T21:54:06.957Z,5.22
2022-10-13T21:56:35.756Z,8.18
2022-10-13T21:59:04.620Z,9.00
2022-10-13T22:01:32.272Z,8.05
2022-10-13T22:04:01.970Z,10.35
2022-10-13T22:06:31.588Z,9.05
2022-10-13T22:09:01.110Z,5.75
2022-10-13T22:11:31.410Z,7.78
2022-10-13T22:14:00.027Z,7.60
2022-10-13T22:16:37.321Z,9.43
2022-10-13T22:19:05.032Z,8.88
2022-10-13T22:21:35.913Z,8.07
2022-10-13T22:24:07.013Z,8.10
2022-10-13T22:26:36.755Z,9.10
2022-10-13T22:29:07.163Z,8.27
2022-10-13T22:31:35.817Z,7.93
2022-10-13T22:34:04.150Z,8.90
2022-10-13T22:36:32.697Z,7.55
2022-10-13T22:39:03.968Z,9.13
2022-10-13T22:41:33.141Z,6.05
2022-10-13T22:44:01.884Z,7.47
2022-10-13T22:46:36.029Z,6.97
2022-10-13T22:49:04.306Z,6.30
2022-10-13T22:51:33.677Z,6.80
2022-10-13T22:54:02.195Z,7.25
2022-10-13T22:56:32.830Z,7.05
2022-10-13T22:59:07.114Z,6.60
2022-10-13T23:01:34.964Z,5.25
2022-10-13T23:04:02.867Z,6.50
2022-10-13T23:06:32.590Z,7.82
2022-10-13T23:09:06.279Z,6.07
2022-10-13T23:11:35.071Z,6.40
2022-10-13T23:14:03.398Z,8.02
2022-10-13T23:16:31.096Z,8.65
2022-10-13T23:18:58.757Z,5.75
2022-10-13T23:21:29.749Z,6.90
2022-10-13T23:24:00.037Z,5.65
2022-10-13T23:26:28.558Z,6.47
2022-10-13T23:28:57.587Z,7.80
2022-10-13T23:31:26.258Z,8.70
2022-10-13T23:33:54.358Z,7.95
2022-10-13T23:36:26.551Z,5.60
2022-10-13T23:39:12.574Z,6.95
2022-10-13T23:41:40.336Z,7.90
2022-10-13T23:44:07.962Z,4.57
2022-10-13T23:46:35.636Z,5.40
2022-10-13T23:49:03.290Z,7.03
2022-10-13T23:51:31.000Z,6.75
2022-10-13T23:53:59.819Z,6.68
2022-10-13T23:56:27.470Z,6.30
2022-10-13T23:58:55.103Z,6.53
